createdAt,value
2022-09-01T14:45:50.353Z,22.71
2022-09-01T14:46:54.924Z,22.62
2022-09-01T14:48:01.176Z,22.90
2022-09-01T14:49:05.193Z,22.97
2022-09-01T14:50:10.248Z,22.87
2022-09-01T14:52:10.428Z,22.89
2022-09-01T14:52:56.932Z,22.77
2022-09-01T14:54:00.983Z,22.73
2022-09-01T14:55:05.664Z,22.67
2022-09-01T14:56:09.132Z,22.61
2022-09-01T14:57:37.681Z,22.57
2022-09-01T14:58:38.330Z,22.60
2022-09-01T14:59:42.634Z,22.54
2022-09-01T15:00:47.889Z,22.59
2022-09-01T15:01:52.753Z,22.60
2022-09-01T15:02:56.587Z,22.61
2022-09-01T15:04:00.622Z,22.62
2022-09-01T15:05:05.652Z,22.64
2022-09-01T15:06:14.301Z,22.63
2022-09-01T15:07:18.503Z,22.64
2022-09-01T15:08:24.177Z,22.66
2022-09-01T15:09:27.941Z,22.64
2022-09-01T15:10:32.462Z,22.71
2022-09-01T15:11:43.993Z,22.66
2022-09-01T15:12:50.163Z,22.70
2022-09-01T15:13:54.263Z,22.69
2022-09-01T15:14:59.753Z,22.78
2022-09-01T15:16:05.022Z,22.62
2022-09-01T15:17:09.172Z,22.77
2022-09-01T15:18:13.104Z,22.78
2022-09-01T15:19:17.019Z,22.68
2022-09-01T15:20:39.802Z,22.62
2022-09-01T15:21:46.913Z,22.68
2022-09-01T15:22:51.759Z,22.57
2022-09-01T15:23:55.451Z,22.58
2022-09-01T15:24:59.231Z,22.55
2022-09-01T15:26:02.831Z,22.50
2022-09-01T15:27:06.977Z,22.40
2022-09-01T15:28:11.757Z,22.44
2022-09-01T15:29:15.656Z,22.42
2022-09-01T15:30:20.573Z,22.38
2022-09-01T15:31:32.740Z,22.23
2022-09-01T15:32:36.900Z,22.17
2022-09-01T15:33:41.949Z,22.13
2022-09-01T15:34:45.483Z,22.15
2022-09-01T15:35:54.472Z,22.10
2022-09-01T15:36:59.642Z,22.09
2022-09-01T15:38:04.244Z,21.99
2022-09-01T15:39:10.513Z,22.01
2022-09-01T15:40:14.313Z,21.99
2022-09-01T15:41:29.922Z,21.99
2022-09-01T15:42:37.771Z,21.91
2022-09-01T15:43:41.438Z,21.94
2022-09-01T15:44:45.002Z,21.79
2022-09-01T15:45:49.247Z,21.85
2022-09-01T15:46:53.681Z,21.82
2022-09-01T15:47:58.019Z,21.80
2022-09-01T15:49:06.205Z,21.83
2022-09-01T15:50:21.368Z,21.73
2022-09-01T15:51:44.323Z,21.80
2022-09-01T15:53:03.184Z,21.80
2022-09-01T15:54:18.171Z,21.74
2022-09-01T15:55:27.998Z,21.77
2022-09-01T15:56:32.533Z,21.75
2022-09-01T15:57:36.088Z,21.77
2022-09-01T15:59:00.163Z,21.70
2022-09-01T16:00:06.716Z,21.84
2022-09-01T16:01:10.445Z,21.82
2022-09-01T16:02:17.906Z,21.90
2022-09-01T16:03:21.557Z,21.87
2022-09-01T16:04:27.822Z,21.92
2022-09-01T16:05:35.316Z,21.94
2022-09-01T16:09:15.699Z,21.68
2022-09-01T16:10:01.555Z,21.88
2022-09-01T16:11:12.214Z,22.08
2022-09-01T16:12:17.292Z,21.95
2022-09-01T16:13:23.689Z,22.07
2022-09-01T16:14:28.549Z,22.03
2022-09-01T16:15:33.182Z,21.97
2022-09-01T16:16:59.806Z,21.89
2022-09-01T16:18:22.862Z,21.90
2022-09-01T16:19:56.677Z,21.87
2022-09-01T16:21:31.935Z,21.87
2022-09-01T16:23:08.603Z,21.80
2022-09-01T16:24:14.257Z,21.76
2022-09-01T16:25:33.942Z,21.70
2022-09-01T16:26:39.907Z,21.53
2022-09-01T16:27:45.953Z,21.71
2022-09-01T16:28:58.200Z,21.71
2022-09-01T16:30:22.505Z,21.62
2022-09-01T16:31:31.483Z,21.68
2022-09-01T16:32:46.823Z,21.47
2022-09-01T16:33:57.062Z,21.46
2022-09-01T16:35:04.252Z,21.53
2022-09-01T16:36:26.236Z,21.61
2022-09-01T16:38:14.979Z,21.66
2022-09-01T16:40:02.752Z,21.68
2022-09-01T16:41:45.440Z,21.67
2022-09-01T16:43:08.559Z,21.56
2022-09-01T16:44:30.406Z,21.55
2022-09-01T16:46:07.812Z,21.55
2022-09-01T16:47:44.491Z,21.56
2022-09-01T16:48:48.317Z,21.54
2022-09-01T16:50:18.217Z,21.55
2022-09-01T16:52:05.568Z,21.53
2022-09-01T16:53:37.670Z,21.56
2022-09-01T16:55:12.891Z,21.57
2022-09-01T16:56:36.682Z,21.50
2022-09-01T16:58:13.547Z,21.54
2022-09-01T16:59:44.403Z,21.54
2022-09-01T17:01:37.244Z,21.52
2022-09-01T17:03:20.077Z,21.41
2022-09-01T17:04:40.454Z,21.45
2022-09-01T17:06:13.655Z,21.44
2022-09-01T17:07:29.949Z,21.42
2022-09-01T17:08:59.152Z,21.41
2022-09-01T17:10:05.509Z,21.40
2022-09-01T17:11:49.235Z,21.37
2022-09-01T17:12:57.010Z,21.36
2022-09-01T17:14:03.342Z,21.30
2022-09-01T17:15:16.448Z,21.29
2022-09-01T17:16:32.537Z,21.18
2022-09-01T17:18:22.407Z,21.18
2022-09-01T17:19:28.936Z,21.19
2022-09-01T17:20:37.012Z,21.18
2022-09-01T17:21:53.427Z,21.15
2022-09-01T17:23:00.727Z,21.10
2022-09-01T17:25:01.077Z,20.75
2022-09-01T17:26:22.059Z,21.00
2022-09-01T17:27:47.286Z,20.96
2022-09-01T17:29:23.320Z,20.95
2022-09-01T17:30:27.349Z,20.86
2022-09-01T17:32:00.128Z,20.85
2022-09-01T17:33:31.172Z,20.78
2022-09-01T17:35:01.244Z,20.85
2022-09-01T17:36:24.558Z,20.85
2022-09-01T17:37:58.456Z,20.72
2022-09-01T17:39:28.958Z,20.74
2022-09-01T17:40:54.487Z,20.73
2022-09-01T17:42:42.902Z,20.73
2022-09-01T17:44:21.322Z,20.69
2022-09-01T17:45:37.215Z,20.63
2022-09-01T17:46:54.166Z,20.53
2022-09-01T17:48:15.571Z,20.59
2022-09-01T17:50:01.608Z,20.58
2022-09-01T17:51:35.350Z,20.56
2022-09-01T17:53:04.072Z,20.47
2022-09-01T17:54:55.746Z,20.43
2022-09-01T17:56:42.646Z,20.42
2022-09-01T17:57:59.063Z,20.31
2022-09-01T17:59:36.898Z,20.35
2022-09-01T18:00:58.807Z,20.27
2022-09-01T18:02:44.877Z,20.29
2022-09-01T18:04:16.914Z,20.26
2022-09-01T18:05:24.604Z,20.08
2022-09-01T18:06:48.779Z,20.21
2022-09-01T18:08:04.936Z,20.18
2022-09-01T18:09:14.836Z,20.09
2022-09-01T18:10:41.868Z,20.13
2022-09-01T18:12:00.329Z,20.11
2022-09-01T18:13:09.232Z,20.07
2022-09-01T18:14:40.510Z,19.94
2022-09-01T18:15:54.373Z,19.96
2022-09-01T18:17:15.243Z,20.03
2022-09-01T18:18:32.422Z,20.00
2022-09-01T18:19:41.366Z,19.97
2022-09-01T18:20:48.838Z,19.95
2022-09-01T18:22:06.829Z,19.91
2022-09-01T18:23:17.057Z,19.94
2022-09-01T18:24:32.729Z,19.90
2022-09-01T18:25:45.865Z,19.90
2022-09-01T18:26:53.090Z,19.88
2022-09-01T18:27:56.631Z,19.84
2022-09-01T18:29:03.254Z,19.79
2022-09-01T18:30:08.025Z,19.80
2022-09-01T18:31:26.193Z,19.80
2022-09-01T18:32:41.467Z,19.78
2022-09-01T18:34:06.094Z,19.75
2022-09-01T18:35:39.224Z,19.74
2022-09-01T18:36:59.222Z,19.69
2022-09-01T18:38:16.692Z,19.58
2022-09-01T18:39:53.592Z,19.64
2022-09-01T18:41:35.040Z,19.65
2022-09-01T18:43:12.467Z,19.61
2022-09-01T18:44:46.693Z,19.58
2022-09-01T18:46:19.400Z,19.49
2022-09-01T18:47:49.302Z,19.51
2022-09-01T18:49:17.030Z,19.46
2022-09-01T18:50:41.461Z,19.42
2022-09-01T18:52:19.654Z,19.42
2022-09-01T18:53:26.252Z,19.38
2022-09-01T18:55:14.019Z,19.36
2022-09-01T18:56:47.265Z,19.35
2022-09-01T18:58:00.411Z,19.22
2022-09-01T18:59:36.714Z,19.27
2022-09-01T19:01:06.190Z,19.27
2022-09-01T19:02:31.685Z,19.26
2022-09-01T19:04:27.718Z,19.09
2022-09-01T19:05:47.853Z,19.21
2022-09-01T19:07:09.067Z,19.19
2022-09-01T19:08:37.599Z,19.17
2022-09-01T19:10:01.821Z,19.11
2022-09-01T19:11:39.929Z,19.08
2022-09-01T19:13:06.596Z,19.09
2022-09-01T19:14:19.619Z,18.96
2022-09-01T19:15:37.811Z,19.02
2022-09-01T19:17:25.004Z,19.05
2022-09-01T19:19:06.015Z,18.97
2022-09-01T19:20:29.692Z,18.87
2022-09-01T19:21:33.809Z,18.92
2022-09-01T19:23:12.745Z,18.94
2022-09-01T19:24:30.829Z,18.92
2022-09-01T19:25:37.029Z,18.80
2022-09-01T19:26:53.013Z,18.85
2022-09-01T19:28:44.013Z,18.87
2022-09-01T19:29:57.816Z,18.82
2022-09-01T19:31:27.337Z,18.82
2022-09-01T19:32:35.680Z,18.80
2022-09-01T19:33:48.554Z,18.79
2022-09-01T19:35:07.414Z,18.75
2022-09-01T19:36:26.341Z,18.72
2022-09-01T19:37:31.716Z,18.63
2022-09-01T19:38:37.625Z,18.69
2022-09-01T19:39:49.799Z,18.63
2022-09-01T19:41:08.508Z,18.61
2022-09-01T19:42:52.970Z,18.64
2022-09-01T19:44:14.800Z,18.64
2022-09-01T19:45:21.334Z,18.64
2022-09-01T19:46:34.762Z,18.60
2022-09-01T19:47:41.850Z,18.58
2022-09-01T19:49:18.584Z,18.54
2022-09-01T19:50:39.006Z,18.43
2022-09-01T19:52:18.090Z,18.45
2022-09-01T19:54:09.220Z,18.43
2022-09-01T19:55:33.155Z,18.42
2022-09-01T19:56:57.725Z,18.38
2022-09-01T19:58:18.727Z,18.38
2022-09-01T19:59:41.441Z,18.37
2022-09-01T20:01:03.519Z,18.24
2022-09-01T20:02:30.037Z,18.31
2022-09-01T20:03:51.389Z,18.21
2022-09-01T20:05:11.829Z,18.29
2022-09-01T20:06:32.615Z,18.19
2022-09-01T20:07:50.466Z,18.24
2022-09-01T20:09:23.974Z,18.25
2022-09-01T20:11:18.970Z,18.22
2022-09-01T20:13:01.727Z,18.17
2022-09-01T20:14:48.693Z,18.22
2022-09-01T20:16:23.617Z,18.06
2022-09-01T20:18:17.416Z,18.19
2022-09-01T20:19:41.665Z,18.17
2022-09-01T20:20:51.056Z,18.15
2022-09-01T20:22:00.528Z,18.12
2022-09-01T20:23:38.591Z,18.16
2022-09-01T20:24:44.872Z,18.16
2022-09-01T20:26:04.131Z,18.13
2022-09-01T20:27:38.769Z,18.15
2022-09-01T20:28:55.389Z,18.09
2022-09-01T20:30:12.498Z,18.10
2022-09-01T20:31:35.581Z,18.07
2022-09-01T20:32:51.853Z,18.08
2022-09-01T20:34:53.192Z,18.06
2022-09-01T20:36:38.314Z,18.06
2022-09-01T20:37:52.321Z,18.02
2022-09-01T20:39:42.178Z,17.99
2022-09-01T20:40:49.301Z,17.98
2022-09-01T20:42:06.455Z,17.96
2022-09-01T20:43:25.188Z,17.88
2022-09-01T20:44:51.436Z,17.95
2022-09-01T20:45:55.367Z,17.88
2022-09-01T20:46:58.901Z,17.95
2022-09-01T20:48:18.252Z,17.89
2022-09-01T20:49:22.661Z,17.88
2022-09-01T20:50:50.247Z,17.95
2022-09-01T20:52:12.751Z,17.85
2022-09-01T20:53:32.195Z,17.93
2022-09-01T20:55:14.348Z,17.93
2022-09-01T20:56:40.528Z,17.94
2022-09-01T20:58:15.301Z,17.92
2022-09-01T20:59:33.791Z,17.79
2022-09-01T21:01:23.698Z,17.92
2022-09-01T21:03:33.575Z,17.94
2022-09-01T21:05:06.779Z,17.91
2022-09-01T21:06:49.024Z,17.86
2022-09-01T21:08:24.987Z,17.88
2022-09-01T21:09:50.269Z,17.84
2022-09-01T21:11:05.666Z,17.85
2022-09-01T21:12:39.625Z,17.82
2022-09-01T21:14:22.958Z,17.80
2022-09-01T21:15:59.576Z,17.75
2022-09-01T21:17:52.896Z,17.77
2022-09-01T21:19:39.961Z,17.68
2022-09-01T21:21:00.701Z,17.65
2022-09-01T21:22:19.840Z,17.63
2022-09-01T21:23:28.460Z,17.56
2022-09-01T21:24:32.374Z,17.58
2022-09-01T21:25:36.289Z,17.60
2022-09-01T21:26:40.458Z,17.55
2022-09-01T21:27:55.613Z,17.48
2022-09-01T21:29:18.399Z,17.56
2022-09-01T21:30:26.090Z,17.59
2022-09-01T21:31:31.343Z,17.43
2022-09-01T21:32:35.994Z,17.53
2022-09-01T21:33:40.347Z,17.45
2022-09-01T21:34:46.558Z,17.47
2022-09-01T21:35:50.699Z,17.44
2022-09-01T21:36:55.561Z,17.41
2022-09-01T21:38:03.280Z,17.41
2022-09-01T21:39:07.404Z,17.40
2022-09-01T21:40:13.514Z,17.45
2022-09-01T21:41:17.159Z,17.46
2022-09-01T21:42:35.057Z,17.48
2022-09-01T21:43:44.138Z,17.49
2022-09-01T21:44:48.302Z,17.39
2022-09-01T21:45:52.338Z,17.49
2022-09-01T21:46:57.546Z,17.43
2022-09-01T21:48:02.861Z,17.30
2022-09-01T21:49:06.334Z,17.45
2022-09-01T21:50:12.580Z,17.41
2022-09-01T21:51:16.491Z,17.41
2022-09-01T21:52:20.386Z,17.40
2022-09-01T21:53:25.504Z,17.39
2022-09-01T21:54:29.205Z,17.34
2022-09-01T21:55:36.045Z,17.35
2022-09-01T21:56:39.862Z,17.34
2022-09-01T21:57:44.277Z,17.26
2022-09-01T21:58:49.967Z,17.22
2022-09-01T21:59:53.598Z,17.28
2022-09-01T22:00:58.671Z,17.24
2022-09-01T22:02:03.387Z,17.31
2022-09-01T22:03:08.372Z,17.20
2022-09-01T22:04:12.563Z,17.20
2022-09-01T22:05:17.497Z,17.20
2022-09-01T22:06:21.196Z,17.21
2022-09-01T22:07:24.768Z,17.25
2022-09-01T22:08:28.407Z,17.11
2022-09-01T22:09:32.757Z,17.20
2022-09-01T22:10:36.326Z,17.12
2022-09-01T22:11:41.369Z,17.15
2022-09-01T22:12:47.700Z,17.13
2022-09-01T22:13:52.527Z,17.09
2022-09-01T22:14:56.095Z,17.14
2022-09-01T22:15:59.633Z,17.16
2022-09-01T22:17:04.410Z,17.13
2022-09-01T22:18:09.639Z,16.99
2022-09-01T22:19:13.230Z,17.00
2022-09-01T22:20:22.659Z,17.08
2022-09-01T22:21:27.019Z,17.09
2022-09-01T22:22:32.848Z,16.96
2022-09-01T22:23:37.728Z,17.03
2022-09-01T22:24:41.537Z,17.02
2022-09-01T22:25:47.853Z,17.00
2022-09-01T22:26:51.467Z,16.86
2022-09-01T22:27:55.846Z,16.93
2022-09-01T22:29:02.515Z,16.85
2022-09-01T22:30:09.171Z,16.86
2022-09-01T22:31:19.029Z,16.93
2022-09-01T22:32:23.277Z,16.92
2022-09-01T22:33:27.565Z,16.90
2022-09-01T22:34:36.116Z,16.87
2022-09-01T22:35:45.954Z,16.87
2022-09-01T22:36:50.708Z,16.77
2022-09-01T22:37:54.485Z,16.80
2022-09-01T22:38:59.717Z,16.89
2022-09-01T22:40:06.040Z,16.81
2022-09-01T22:41:09.643Z,16.86
2022-09-01T22:42:13.993Z,16.83
2022-09-01T22:43:18.948Z,16.79
2022-09-01T22:44:23.797Z,16.75
2022-09-01T22:45:27.401Z,16.75
2022-09-01T22:46:33.269Z,16.74
2022-09-01T22:47:38.620Z,16.59
2022-09-01T22:48:42.357Z,16.73
2022-09-01T22:49:45.953Z,16.70
2022-09-01T22:50:52.102Z,16.58
2022-09-01T22:51:55.805Z,16.57
2022-09-01T22:52:59.543Z,16.61
2022-09-01T22:54:04.273Z,16.64
2022-09-01T22:55:10.974Z,16.58
2022-09-01T22:56:21.988Z,16.61
2022-09-01T22:57:25.600Z,16.64
2022-09-01T22:58:29.276Z,16.50
2022-09-01T22:59:32.911Z,16.66
2022-09-01T23:00:38.578Z,16.67
2022-09-01T23:01:47.760Z,16.68
2022-09-01T23:02:51.784Z,16.62
2022-09-01T23:03:59.692Z,16.60
2022-09-01T23:05:03.454Z,16.71
2022-09-01T23:06:25.179Z,16.64
2022-09-01T23:07:31.842Z,16.68
2022-09-01T23:08:37.150Z,16.65
2022-09-01T23:09:40.872Z,16.57
2022-09-01T23:10:44.531Z,16.55
2022-09-01T23:11:49.663Z,16.51
2022-09-01T23:12:53.484Z,16.47
2022-09-01T23:13:57.622Z,16.61
2022-09-01T23:15:02.159Z,16.59
2022-09-01T23:16:10.028Z,16.49
2022-09-01T23:17:13.640Z,16.55
2022-09-01T23:18:17.144Z,16.50
2022-09-01T23:19:23.109Z,16.57
2022-09-01T23:20:28.239Z,16.51
2022-09-01T23:21:36.197Z,16.56
2022-09-01T23:22:45.458Z,16.55
2022-09-01T23:23:55.170Z,16.51
2022-09-01T23:25:02.460Z,16.56
2022-09-01T23:26:11.120Z,16.54
2022-09-01T23:27:14.676Z,16.51
2022-09-01T23:28:19.346Z,16.53
2022-09-01T23:29:26.458Z,16.53
2022-09-01T23:30:30.478Z,16.35
2022-09-01T23:31:38.029Z,16.47
2022-09-01T23:32:41.701Z,16.45
2022-09-01T23:33:46.542Z,16.45
2022-09-01T23:34:50.665Z,16.50
2022-09-01T23:35:56.646Z,16.48
2022-09-01T23:37:00.765Z,16.46
2022-09-01T23:38:04.318Z,16.50
2022-09-01T23:39:12.733Z,16.49
2022-09-01T23:40:16.462Z,16.50
2022-09-01T23:41:31.156Z,16.43
2022-09-01T23:42:35.464Z,16.47
2022-09-01T23:43:41.343Z,16.45
2022-09-01T23:44:44.903Z,16.42
2022-09-01T23:45:56.597Z,16.45
2022-09-01T23:47:00.141Z,16.45
2022-09-01T23:48:04.201Z,16.31
2022-09-01T23:49:08.390Z,16.38
2022-09-01T23:50:12.135Z,16.40
2022-09-01T23:51:18.158Z,16.30
2022-09-01T23:52:22.552Z,16.38
2022-09-01T23:53:31.413Z,16.34
2022-09-01T23:54:35.874Z,16.40
2022-09-01T23:55:48.582Z,16.38
2022-09-01T23:56:52.559Z,16.33
2022-09-01T23:57:56.046Z,16.38
2022-09-01T23:59:00.682Z,16.30
